createdAt,value
2022-08-17T00:00:35.042Z,8.20
2022-08-17T00:01:17.119Z,9.90
2022-08-17T00:02:25.576Z,7.80
2022-08-17T00:03:17.199Z,8.60
2022-08-17T00:04:16.885Z,8.00
2022-08-17T00:05:16.911Z,7.90
2022-08-17T00:06:16.834Z,8.40
2022-08-17T00:07:16.822Z,8.00
2022-08-17T00:08:16.808Z,8.80
2022-08-17T00:09:18.932Z,8.40
2022-08-17T00:10:16.964Z,8.20
2022-08-17T00:11:16.790Z,8.40
2022-08-17T00:12:43.513Z,8.90
2022-08-17T00:13:16.763Z,9.60
2022-08-17T00:14:16.743Z,9.30
2022-08-17T00:15:16.745Z,9.20
2022-08-17T00:16:16.722Z,8.90
2022-08-17T00:17:16.737Z,10.00
2022-08-17T00:19:06.680Z,8.70
2022-08-17T00:19:16.689Z,8.80
2022-08-17T00:20:16.683Z,8.80
2022-08-17T00:21:16.674Z,8.40
2022-08-17T00:22:32.352Z,8.20
2022-08-17T00:23:16.651Z,8.80
2022-08-17T00:24:16.633Z,8.40
2022-08-17T00:25:16.616Z,8.80
2022-08-17T00:26:16.620Z,9.50
2022-08-17T00:27:16.627Z,8.20
2022-08-17T00:28:16.593Z,8.70
2022-08-17T00:29:19.991Z,8.30
2022-08-17T00:30:16.579Z,8.40
2022-08-17T00:31:16.566Z,8.30
2022-08-17T00:33:12.481Z,8.10
2022-08-17T00:33:17.036Z,8.50
2022-08-17T00:34:16.522Z,7.80
2022-08-17T00:35:16.523Z,7.70
2022-08-17T00:36:16.498Z,7.80
2022-08-17T00:37:16.503Z,8.20
2022-08-17T00:38:16.511Z,8.40
2022-08-17T00:39:16.470Z,7.90
2022-08-17T00:40:16.528Z,8.00
2022-08-17T00:41:16.455Z,8.10
2022-08-17T00:42:16.443Z,8.90
2022-08-17T00:43:16.448Z,8.10
2022-08-17T00:44:16.422Z,8.00
2022-08-17T00:46:49.765Z,7.50
2022-08-17T00:47:50.749Z,7.90
2022-08-17T00:48:50.760Z,7.70
2022-08-17T00:49:50.746Z,7.00
2022-08-17T00:50:50.756Z,7.60
2022-08-17T00:51:50.714Z,8.10
2022-08-17T00:52:50.981Z,7.60
2022-08-17T00:53:50.696Z,7.70
2022-08-17T00:54:50.699Z,8.40
2022-08-17T00:55:50.693Z,7.40
2022-08-17T00:56:50.663Z,8.00
2022-08-17T00:57:55.073Z,10.00
2022-08-17T00:58:50.634Z,8.70
2022-08-17T01:00:01.731Z,8.10
2022-08-17T01:00:50.664Z,8.30
2022-08-17T01:01:50.599Z,8.30
2022-08-17T01:02:50.594Z,7.70
2022-08-17T01:03:50.589Z,8.30
2022-08-17T01:04:50.605Z,8.70
2022-08-17T01:05:50.570Z,8.70
2022-08-17T01:06:50.543Z,8.10
2022-08-17T01:07:50.541Z,8.60
2022-08-17T01:08:50.518Z,8.70
2022-08-17T01:09:50.531Z,8.30
2022-08-17T01:11:00.582Z,7.70
2022-08-17T01:11:50.483Z,8.20
2022-08-17T01:12:50.775Z,7.70
2022-08-17T01:13:50.461Z,8.60
2022-08-17T01:14:50.481Z,8.40
2022-08-17T01:15:50.445Z,8.40
2022-08-17T01:16:50.444Z,8.30
2022-08-17T01:17:50.419Z,9.00
2022-08-17T01:18:50.406Z,9.00
2022-08-17T01:19:50.422Z,8.60
2022-08-17T01:20:50.387Z,8.20
2022-08-17T01:21:50.382Z,8.60
2022-08-17T01:22:50.623Z,8.50
2022-08-17T01:23:50.357Z,8.80
2022-08-17T01:24:50.354Z,8.20
2022-08-17T01:25:50.342Z,9.60
2022-08-17T01:26:50.328Z,7.90
2022-08-17T01:27:50.320Z,7.90
2022-08-17T01:28:53.712Z,8.10
2022-08-17T01:29:50.289Z,8.60
2022-08-17T01:30:56.731Z,8.40
2022-08-17T01:31:50.269Z,8.60
2022-08-17T01:32:50.623Z,8.10
2022-08-17T01:33:50.250Z,9.00
2022-08-17T01:34:50.910Z,8.70
2022-08-17T01:35:50.221Z,8.40
2022-08-17T01:36:50.273Z,8.90
2022-08-17T01:37:50.232Z,8.50
2022-08-17T01:38:50.191Z,9.00
2022-08-17T01:39:50.285Z,8.90
2022-08-17T01:40:50.172Z,9.50
2022-08-17T01:41:50.213Z,9.10
2022-08-17T01:42:50.451Z,9.10
2022-08-17T01:43:50.165Z,9.00
2022-08-17T01:44:50.135Z,8.90
2022-08-17T01:45:50.114Z,9.00
2022-08-17T01:46:50.102Z,8.30
2022-08-17T01:47:50.106Z,8.90
2022-08-17T01:48:50.096Z,9.10
2022-08-17T01:49:50.083Z,9.20
2022-08-17T01:50:50.060Z,8.40
2022-08-17T01:51:50.048Z,8.90
2022-08-17T01:52:50.135Z,9.70
2022-08-17T01:53:50.039Z,9.20
2022-08-17T01:54:50.010Z,9.20
2022-08-17T01:55:50.032Z,8.80
2022-08-17T01:56:50.043Z,8.50
2022-08-17T01:57:50.012Z,8.60
2022-08-17T01:58:49.963Z,8.90
2022-08-17T01:59:49.957Z,8.80
2022-08-17T02:01:01.083Z,9.80
2022-08-17T02:01:50.041Z,9.40
2022-08-17T02:02:50.161Z,8.60
2022-08-17T02:03:53.500Z,8.60
2022-08-17T02:04:49.897Z,9.20
2022-08-17T02:05:49.892Z,8.70
2022-08-17T02:06:53.554Z,8.70
2022-08-17T02:08:00.638Z,8.40
2022-08-17T02:08:57.043Z,8.40
2022-08-17T02:09:52.823Z,9.10
2022-08-17T02:10:49.845Z,8.70
2022-08-17T02:11:49.918Z,8.10
2022-08-17T02:12:50.039Z,8.20
2022-08-17T02:13:57.977Z,8.10
2022-08-17T02:14:49.797Z,8.20
2022-08-17T02:15:49.812Z,8.60
2022-08-17T02:16:49.763Z,8.10
2022-08-17T02:17:49.754Z,8.20
2022-08-17T02:18:49.753Z,8.40
2022-08-17T02:19:49.735Z,8.30
2022-08-17T02:20:49.732Z,8.40
2022-08-17T02:21:49.742Z,9.50
2022-08-17T02:22:49.900Z,8.10
2022-08-17T02:23:49.685Z,8.80
2022-08-17T02:24:59.675Z,8.30
2022-08-17T02:25:49.665Z,8.10
2022-08-17T02:26:49.659Z,7.90
2022-08-17T02:27:49.642Z,7.80
2022-08-17T02:28:49.626Z,8.00
2022-08-17T02:29:49.641Z,8.40
2022-08-17T02:31:00.282Z,8.30
2022-08-17T02:31:49.597Z,8.10
2022-08-17T02:32:49.855Z,7.90
2022-08-17T02:34:00.422Z,7.70
2022-08-17T02:34:49.587Z,8.80
2022-08-17T02:35:49.551Z,9.50
2022-08-17T02:36:49.662Z,8.10
2022-08-17T02:37:55.371Z,9.70
2022-08-17T02:38:49.520Z,8.80
2022-08-17T02:39:49.617Z,8.50
2022-08-17T02:40:49.529Z,8.80
2022-08-17T02:41:49.502Z,9.30
2022-08-17T02:42:49.609Z,8.40
2022-08-17T02:43:49.461Z,9.00
2022-08-17T02:44:49.446Z,8.70
2022-08-17T02:45:49.461Z,9.10
2022-08-17T02:47:58.391Z,8.60
2022-08-17T02:48:59.386Z,9.60
2022-08-17T02:49:59.392Z,9.40
2022-08-17T02:50:59.392Z,9.50
2022-08-17T02:51:59.343Z,9.60
2022-08-17T02:53:02.274Z,10.10
2022-08-17T02:54:38.852Z,9.30
2022-08-17T02:54:59.339Z,9.10
2022-08-17T02:55:59.294Z,9.70
2022-08-17T02:56:59.288Z,9.10
2022-08-17T02:57:59.279Z,9.50
2022-08-17T02:58:59.267Z,9.10
2022-08-17T02:59:59.278Z,9.60
2022-08-17T03:00:59.259Z,10.30
2022-08-17T03:01:59.358Z,10.00
2022-08-17T03:02:59.231Z,9.60
2022-08-17T03:03:59.210Z,9.60
2022-08-17T03:04:59.224Z,9.90
2022-08-17T03:05:59.197Z,9.90
2022-08-17T03:06:59.178Z,10.00
2022-08-17T03:07:59.167Z,9.90
2022-08-17T03:08:59.161Z,10.60
2022-08-17T03:09:59.165Z,10.10
2022-08-17T03:10:59.147Z,10.00
2022-08-17T03:11:59.145Z,9.80
2022-08-17T03:12:59.112Z,11.00
2022-08-17T03:13:59.107Z,11.10
2022-08-17T03:14:59.099Z,11.20
2022-08-17T03:15:59.106Z,10.80
2022-08-17T03:16:59.069Z,11.10
2022-08-17T03:17:59.058Z,11.40
2022-08-17T03:18:59.039Z,11.40
2022-08-17T03:19:59.031Z,10.80
2022-08-17T03:20:59.015Z,11.30
2022-08-17T03:21:59.022Z,10.50
2022-08-17T03:23:02.021Z,10.30
2022-08-17T03:23:59.017Z,11.10
2022-08-17T03:24:58.976Z,10.80
2022-08-17T03:25:58.975Z,10.90
2022-08-17T03:26:58.951Z,10.70
2022-08-17T03:27:58.935Z,10.30
2022-08-17T03:28:58.957Z,10.60
2022-08-17T03:29:58.922Z,10.50
2022-08-17T03:30:58.918Z,11.90
2022-08-17T03:31:58.910Z,10.50
2022-08-17T03:32:58.886Z,10.90
2022-08-17T03:33:58.903Z,11.00
2022-08-17T03:34:58.873Z,10.60
2022-08-17T03:35:58.863Z,11.20
2022-08-17T03:36:58.852Z,10.90
2022-08-17T03:38:01.076Z,11.50
2022-08-17T03:38:58.846Z,11.00
2022-08-17T03:39:58.852Z,10.40
2022-08-17T03:40:59.853Z,9.60
2022-08-17T03:41:58.804Z,9.40
2022-08-17T03:42:58.793Z,10.00
2022-08-17T03:43:58.770Z,10.30
2022-08-17T03:44:58.788Z,9.60
2022-08-17T03:45:58.743Z,10.20
2022-08-17T03:46:58.758Z,10.50
2022-08-17T03:47:58.749Z,10.40
2022-08-17T03:48:58.711Z,9.70
2022-08-17T03:49:58.710Z,10.00
2022-08-17T03:50:58.682Z,9.70
2022-08-17T03:51:58.675Z,10.10
2022-08-17T03:52:58.813Z,11.50
2022-08-17T03:53:58.651Z,9.40
2022-08-17T03:54:58.674Z,9.50
2022-08-17T03:55:58.627Z,9.10
2022-08-17T03:56:58.619Z,9.00
2022-08-17T03:57:58.610Z,8.60
2022-08-17T03:58:58.599Z,8.70
2022-08-17T03:59:58.606Z,8.30
2022-08-17T04:00:58.719Z,9.10
2022-08-17T04:01:58.567Z,9.30
2022-08-17T04:02:58.564Z,8.70
2022-08-17T04:03:58.557Z,8.50
2022-08-17T04:04:58.545Z,8.90
2022-08-17T04:05:58.522Z,9.00
2022-08-17T04:06:58.517Z,8.90
2022-08-17T04:07:58.518Z,8.40
2022-08-17T04:08:58.480Z,8.90
2022-08-17T04:09:58.479Z,8.90
2022-08-17T04:10:58.457Z,8.40
2022-08-17T04:12:02.334Z,7.70
2022-08-17T04:12:58.468Z,8.20
2022-08-17T04:13:58.433Z,8.50
2022-08-17T04:14:58.437Z,8.40
2022-08-17T04:15:58.400Z,8.80
2022-08-17T04:16:58.396Z,8.10
2022-08-17T04:17:58.424Z,8.40
2022-08-17T04:18:58.378Z,8.80
2022-08-17T04:19:58.367Z,8.40
2022-08-17T04:20:58.359Z,8.10
2022-08-17T04:21:58.344Z,8.70
2022-08-17T04:22:58.355Z,7.80
2022-08-17T04:23:58.337Z,8.30
2022-08-17T04:24:58.762Z,7.70
2022-08-17T04:25:58.295Z,9.20
2022-08-17T04:26:58.279Z,8.40
2022-08-17T04:27:58.283Z,8.80
2022-08-17T04:28:58.273Z,8.50
2022-08-17T04:29:58.273Z,8.70
2022-08-17T04:30:58.235Z,8.00
2022-08-17T04:31:58.223Z,8.30
2022-08-17T04:33:03.813Z,8.10
2022-08-17T04:33:58.231Z,8.50
2022-08-17T04:34:58.206Z,8.90
2022-08-17T04:35:58.184Z,9.10
2022-08-17T04:36:58.171Z,8.50
2022-08-17T04:37:58.179Z,8.90
2022-08-17T04:38:58.453Z,9.10
2022-08-17T04:40:03.304Z,9.10
2022-08-17T04:40:58.147Z,8.80
2022-08-17T04:41:58.112Z,9.70
2022-08-17T04:42:59.958Z,9.20
2022-08-17T04:43:58.116Z,9.30
2022-08-17T04:44:58.098Z,9.40
2022-08-17T04:45:58.070Z,8.90
2022-08-17T04:46:58.055Z,9.40
2022-08-17T04:49:07.040Z,9.10
2022-08-17T04:50:08.014Z,8.70
2022-08-17T04:51:07.988Z,9.60
2022-08-17T04:52:07.979Z,9.50
2022-08-17T04:53:07.963Z,10.20
2022-08-17T04:54:07.981Z,9.70
2022-08-17T04:55:07.941Z,9.90
2022-08-17T04:56:07.951Z,10.10
2022-08-17T04:57:07.922Z,9.30
2022-08-17T04:58:07.914Z,9.20
2022-08-17T04:59:07.923Z,10.70
2022-08-17T05:00:07.893Z,9.50
2022-08-17T05:01:07.967Z,9.50
2022-08-17T05:02:07.865Z,8.90
2022-08-17T05:03:07.868Z,8.80
2022-08-17T05:04:21.069Z,9.60
2022-08-17T05:05:07.858Z,9.40
2022-08-17T05:06:07.824Z,9.50
2022-08-17T05:07:07.816Z,9.80
2022-08-17T05:08:07.802Z,10.00
2022-08-17T05:09:07.805Z,9.80
2022-08-17T05:10:07.789Z,9.50
2022-08-17T05:11:07.778Z,9.50
2022-08-17T05:12:07.757Z,9.40
2022-08-17T05:13:07.749Z,9.70
2022-08-17T05:14:07.764Z,9.50
2022-08-17T05:15:07.757Z,9.60
2022-08-17T05:16:07.720Z,9.50
2022-08-17T05:17:11.181Z,10.90
2022-08-17T05:18:07.687Z,9.60
2022-08-17T05:19:07.716Z,10.50
2022-08-17T05:20:08.001Z,10.10
2022-08-17T05:21:07.655Z,10.10
2022-08-17T05:22:07.653Z,10.30
2022-08-17T05:23:07.632Z,9.50
2022-08-17T05:24:38.599Z,10.60
2022-08-17T05:25:07.629Z,9.90
2022-08-17T05:26:07.900Z,9.20
2022-08-17T05:27:07.606Z,10.00
2022-08-17T05:28:07.592Z,9.80
2022-08-17T05:29:07.609Z,9.90
2022-08-17T05:30:07.561Z,10.20
2022-08-17T05:31:07.554Z,9.00
2022-08-17T05:32:38.321Z,9.70
2022-08-17T05:33:07.530Z,9.70
2022-08-17T05:34:07.548Z,10.00
2022-08-17T05:35:07.512Z,9.50
2022-08-17T05:36:07.517Z,9.40
2022-08-17T05:37:07.492Z,9.20
2022-08-17T05:38:07.471Z,9.40
2022-08-17T05:39:07.502Z,9.10
2022-08-17T05:40:07.555Z,9.10
2022-08-17T05:41:07.457Z,9.10
2022-08-17T05:42:07.435Z,9.40
2022-08-17T05:43:07.416Z,9.70
2022-08-17T05:44:07.431Z,9.50
2022-08-17T05:45:07.395Z,9.20
2022-08-17T05:46:07.386Z,8.80
2022-08-17T05:47:07.375Z,9.10
2022-08-17T05:48:08.640Z,9.00
2022-08-17T05:49:07.756Z,8.90
2022-08-17T05:50:09.761Z,9.50
2022-08-17T05:51:07.337Z,9.70
2022-08-17T05:52:07.438Z,9.00
2022-08-17T05:53:07.356Z,8.80
2022-08-17T05:54:07.604Z,9.10
2022-08-17T05:55:07.310Z,8.80
2022-08-17T05:56:09.932Z,9.20
2022-08-17T05:57:07.275Z,8.80
2022-08-17T05:58:07.350Z,8.60
2022-08-17T05:59:07.304Z,9.60
2022-08-17T06:00:07.939Z,9.00
2022-08-17T06:01:07.715Z,8.90
2022-08-17T06:02:07.255Z,8.20
2022-08-17T06:03:07.226Z,8.50
2022-08-17T06:04:07.585Z,8.30
2022-08-17T06:12:09.191Z,7.80
2022-08-17T06:12:14.205Z,8.10
2022-08-17T06:12:34.386Z,8.40
2022-08-17T06:12:37.081Z,8.50
2022-08-17T06:16:33.152Z,6.60
2022-08-17T06:20:25.998Z,7.50
2022-08-17T06:25:46.967Z,7.90
2022-08-17T06:25:51.060Z,7.60
2022-08-17T06:26:01.299Z,7.50
2022-08-17T06:26:39.630Z,9.10
2022-08-17T06:26:44.314Z,7.20
2022-08-17T06:29:39.045Z,8.50
2022-08-17T06:31:00.673Z,7.80
2022-08-17T06:31:39.950Z,8.30
2022-08-17T06:32:39.905Z,8.70
2022-08-17T06:33:39.858Z,8.70
2022-08-17T06:34:39.872Z,7.90
2022-08-17T06:35:39.935Z,8.40
2022-08-17T06:36:39.783Z,8.50
2022-08-17T06:37:39.777Z,7.10
2022-08-17T06:38:39.918Z,7.20
2022-08-17T06:39:39.839Z,9.50
2022-08-17T06:40:39.797Z,7.00
2022-08-17T06:41:39.862Z,7.90
2022-08-17T06:43:02.548Z,6.80
2022-08-17T06:43:39.760Z,6.70
2022-08-17T06:44:49.695Z,6.40
2022-08-17T06:45:39.698Z,7.00
2022-08-17T06:46:39.755Z,7.30
2022-08-17T06:47:39.749Z,7.10
2022-08-17T06:48:39.671Z,7.30
2022-08-17T06:49:39.852Z,6.50
2022-08-17T06:50:39.772Z,7.30
2022-08-17T06:51:39.829Z,6.20
2022-08-17T06:52:45.602Z,6.70
2022-08-17T06:53:40.602Z,6.40
2022-08-17T06:54:39.663Z,7.30
2022-08-17T06:55:39.611Z,6.90
2022-08-17T06:56:53.443Z,7.20
2022-08-17T06:57:39.713Z,6.70
2022-08-17T06:58:40.254Z,6.80
2022-08-17T07:03:32.063Z,6.40
2022-08-17T07:03:39.625Z,7.00
2022-08-17T07:04:47.824Z,6.80
2022-08-17T07:15:30.899Z,5.10
2022-08-17T22:46:27.205Z,28.20
2022-08-17T22:47:28.180Z,35.00
2022-08-17T22:48:28.188Z,36.60
2022-08-17T22:49:28.189Z,39.60
2022-08-17T22:50:28.163Z,39.30
2022-08-17T22:51:28.151Z,40.30
2022-08-17T22:52:29.191Z,41.20
2022-08-17T22:53:28.110Z,40.30
2022-08-17T22:54:28.116Z,39.40
2022-08-17T22:55:28.112Z,42.20
2022-08-17T22:56:28.082Z,41.20
2022-08-17T22:57:28.072Z,41.30
2022-08-17T22:58:28.058Z,42.30
2022-08-17T22:59:28.080Z,41.30
2022-08-17T23:00:28.037Z,40.70
2022-08-17T23:01:28.022Z,41.00
2022-08-17T23:02:28.092Z,39.00
2022-08-17T23:03:28.161Z,40.00
2022-08-17T23:04:27.999Z,40.80
2022-08-17T23:05:28.001Z,40.40
2022-08-17T23:06:27.974Z,41.50
2022-08-17T23:07:27.958Z,41.10
2022-08-17T23:08:27.946Z,39.70
2022-08-17T23:09:27.941Z,42.10
2022-08-17T23:10:27.961Z,39.90
2022-08-17T23:11:42.952Z,40.80
2022-08-17T23:12:27.927Z,42.30
2022-08-17T23:13:27.896Z,41.10
2022-08-17T23:14:27.896Z,41.30
2022-08-17T23:15:27.905Z,41.50
2022-08-17T23:16:27.864Z,41.20
2022-08-17T23:17:27.859Z,42.20
2022-08-17T23:18:27.847Z,41.70
2022-08-17T23:19:27.829Z,42.70
2022-08-17T23:20:27.843Z,43.00
2022-08-17T23:21:27.810Z,42.00
2022-08-17T23:22:27.801Z,40.90
2022-08-17T23:23:27.802Z,40.90
2022-08-17T23:24:27.788Z,42.70
2022-08-17T23:25:27.784Z,42.20
2022-08-17T23:26:27.757Z,43.90
2022-08-17T23:27:27.749Z,44.50
2022-08-17T23:28:27.727Z,42.40
2022-08-17T23:29:27.714Z,42.20
2022-08-17T23:30:27.719Z,41.20
2022-08-17T23:31:27.700Z,41.50
2022-08-17T23:32:27.715Z,41.80
2022-08-17T23:33:27.674Z,41.80
2022-08-17T23:34:27.666Z,44.20
2022-08-17T23:35:39.297Z,43.40
2022-08-17T23:36:27.645Z,42.00
2022-08-17T23:37:27.654Z,42.20
2022-08-17T23:38:27.624Z,43.70
2022-08-17T23:39:28.386Z,42.40
2022-08-17T23:40:27.601Z,44.70
2022-08-17T23:41:27.586Z,45.00
2022-08-17T23:42:27.606Z,45.40
2022-08-17T23:43:28.276Z,42.80
2022-08-17T23:44:27.577Z,42.70
2022-08-17T23:45:27.560Z,43.70
2022-08-17T23:46:27.545Z,43.60
2022-08-17T23:47:27.548Z,43.70
2022-08-17T23:48:35.307Z,44.30
2022-08-17T23:49:27.503Z,41.00
2022-08-17T23:50:29.901Z,42.10
2022-08-17T23:51:27.475Z,41.70
2022-08-17T23:52:27.488Z,42.40
2022-08-17T23:53:27.462Z,42.90
2022-08-17T23:54:27.447Z,43.40
2022-08-17T23:55:27.438Z,44.80
2022-08-17T23:56:27.427Z,44.10
2022-08-17T23:57:33.601Z,43.00
2022-08-17T23:58:27.405Z,42.90
2022-08-17T23:59:27.394Z,43.10
